CFG149 GCTS-GCLA
Flight info
| Callsign | CFG149 |
|---|---|
| Flight time | 0h 31m |
| Altitude | 13000 |
| Route | MOROD |
| Aircraft | A320/M-SDE3FGHIRWY/LB1 |
Departure
| Time | 2026-04-23 16:18 |
|---|---|
| Airport | Tenerife Sur Airport (GCTS) |
Arrival
| Time | 2026-04-23 16:49 |
|---|---|
| Airport | La Palma Airport (GCLA) |
| Time | Latitude | Longitude | Altitude | Speed | Heading |
|---|---|---|---|---|---|
| 2026-04-23 15:59 | 28.04729 | -16.57630 | 226 ft | 0 kts | 339° |
| 2026-04-23 16:07 | 28.04721 | -16.57626 | 227 ft | 4 kts | 339° |
| 2026-04-23 16:08 | 28.04696 | -16.57615 | 226 ft | 4 kts | 338° |
| 2026-04-23 16:08 | 28.04672 | -16.57602 | 227 ft | 4 kts | 319° |
| 2026-04-23 16:08 | 28.04660 | -16.57580 | 228 ft | 4 kts | 268° |
| 2026-04-23 16:08 | 28.04664 | -16.57556 | 225 ft | 1 kts | 248° |
| 2026-04-23 16:11 | 28.04655 | -16.57583 | 224 ft | 11 kts | 248° |
| 2026-04-23 16:11 | 28.04613 | -16.57690 | 226 ft | 16 kts | 227° |
| 2026-04-23 16:12 | 28.04511 | -16.57675 | 222 ft | 15 kts | 166° |
| 2026-04-23 16:12 | 28.04460 | -16.57748 | 223 ft | 12 kts | 258° |
| 2026-04-23 16:12 | 28.04427 | -16.57828 | 224 ft | 11 kts | 248° |
| 2026-04-23 16:12 | 28.04403 | -16.57901 | 223 ft | 9 kts | 250° |
| 2026-04-23 16:13 | 28.04372 | -16.57996 | 223 ft | 18 kts | 250° |
| 2026-04-23 16:13 | 28.04262 | -16.58309 | 224 ft | 21 kts | 248° |
| 2026-04-23 16:13 | 28.04209 | -16.58453 | 223 ft | 19 kts | 248° |
| 2026-04-23 16:14 | 28.04173 | -16.58586 | 222 ft | 17 kts | 250° |
| 2026-04-23 16:14 | 28.04127 | -16.58720 | 216 ft | 20 kts | 248° |
| 2026-04-23 16:14 | 28.04075 | -16.58867 | 214 ft | 19 kts | 247° |
| 2026-04-23 16:14 | 28.04034 | -16.58977 | 211 ft | 9 kts | 237° |
| 2026-04-23 16:15 | 28.04030 | -16.58983 | 215 ft | 0 kts | 230° |
| 2026-04-23 16:15 | 28.04024 | -16.58990 | 212 ft | 4 kts | 227° |
| 2026-04-23 16:16 | 28.04006 | -16.59000 | 209 ft | 2 kts | 195° |
| 2026-04-23 16:16 | 28.03991 | -16.58999 | 211 ft | 4 kts | 171° |
| 2026-04-23 16:16 | 28.03955 | -16.58975 | 209 ft | 11 kts | 137° |
| 2026-04-23 16:16 | 28.03905 | -16.58875 | 199 ft | 16 kts | 109° |
| 2026-04-23 16:17 | 28.03924 | -16.58749 | 200 ft | 18 kts | 70° |
| 2026-04-23 16:17 | 28.04010 | -16.58503 | 205 ft | 64 kts | 68° |
| 2026-04-23 16:17 | 28.04250 | -16.57816 | 201 ft | 124 kts | 68° |
| 2026-04-23 16:17 | 28.04625 | -16.56732 | 322 ft | 159 kts | 69° |
| 2026-04-23 16:18 | 28.05006 | -16.55560 | 968 ft | 160 kts | 70° |
| 2026-04-23 16:18 | 28.05394 | -16.54377 | 1656 ft | 163 kts | 70° |
| 2026-04-23 16:18 | 28.05824 | -16.53092 | 2096 ft | 184 kts | 69° |
| 2026-04-23 16:18 | 28.06325 | -16.51682 | 2551 ft | 201 kts | 68° |
| 2026-04-23 16:19 | 28.06880 | -16.50149 | 2934 ft | 220 kts | 68° |
| 2026-04-23 16:19 | 28.07466 | -16.48518 | 3781 ft | 222 kts | 67° |
| 2026-04-23 16:19 | 28.07795 | -16.46809 | 4584 ft | 228 kts | 94° |
| 2026-04-23 16:19 | 28.07213 | -16.45132 | 4925 ft | 233 kts | 132° |
| 2026-04-23 16:20 | 28.05853 | -16.44207 | 5005 ft | 232 kts | 164° |
| 2026-04-23 16:20 | 28.04290 | -16.43731 | 5008 ft | 233 kts | 166° |
| 2026-04-23 16:20 | 28.02733 | -16.43291 | 5007 ft | 233 kts | 166° |
| 2026-04-23 16:20 | 28.01153 | -16.42869 | 5005 ft | 233 kts | 174° |
| 2026-04-23 16:21 | 27.99575 | -16.43123 | 5003 ft | 230 kts | 208° |
| 2026-04-23 16:21 | 27.98359 | -16.44305 | 5009 ft | 241 kts | 240° |
| 2026-04-23 16:21 | 27.97801 | -16.46100 | 5011 ft | 245 kts | 258° |
| 2026-04-23 16:21 | 27.97381 | -16.47981 | 5007 ft | 247 kts | 256° |
| 2026-04-23 16:22 | 27.96923 | -16.49849 | 5012 ft | 247 kts | 255° |
| 2026-04-23 16:22 | 27.96452 | -16.51723 | 5008 ft | 248 kts | 255° |
| 2026-04-23 16:22 | 27.95976 | -16.53608 | 5011 ft | 248 kts | 255° |
| 2026-04-23 16:22 | 27.95505 | -16.55485 | 5008 ft | 248 kts | 255° |
| 2026-04-23 16:23 | 27.95038 | -16.57359 | 5008 ft | 247 kts | 256° |
| 2026-04-23 16:23 | 27.94573 | -16.59235 | 5011 ft | 248 kts | 256° |
| 2026-04-23 16:23 | 27.94134 | -16.61092 | 5009 ft | 247 kts | 261° |
| 2026-04-23 16:23 | 27.94112 | -16.63016 | 5006 ft | 245 kts | 282° |
| 2026-04-23 16:24 | 27.94704 | -16.64852 | 5012 ft | 258 kts | 302° |
| 2026-04-23 16:24 | 27.95860 | -16.66434 | 5011 ft | 263 kts | 314° |
| 2026-04-23 16:24 | 27.97129 | -16.67934 | 5006 ft | 264 kts | 314° |
| 2026-04-23 16:24 | 27.98399 | -16.69447 | 5007 ft | 265 kts | 314° |
| 2026-04-23 16:25 | 27.99664 | -16.70957 | 5008 ft | 265 kts | 314° |
| 2026-04-23 16:25 | 28.00928 | -16.72470 | 5007 ft | 264 kts | 314° |
| 2026-04-23 16:25 | 28.02189 | -16.73982 | 5006 ft | 263 kts | 314° |
| 2026-04-23 16:25 | 28.03422 | -16.75461 | 5006 ft | 263 kts | 314° |
| 2026-04-23 16:26 | 28.04687 | -16.76978 | 5008 ft | 264 kts | 314° |
| 2026-04-23 16:26 | 28.05946 | -16.78484 | 5008 ft | 263 kts | 314° |
| 2026-04-23 16:26 | 28.07202 | -16.79986 | 5003 ft | 264 kts | 314° |
| 2026-04-23 16:26 | 28.08463 | -16.81498 | 5009 ft | 264 kts | 314° |
| 2026-04-23 16:27 | 28.09730 | -16.83022 | 5010 ft | 265 kts | 314° |
| 2026-04-23 16:27 | 28.10986 | -16.84537 | 5010 ft | 264 kts | 314° |
| 2026-04-23 16:27 | 28.12243 | -16.86053 | 5009 ft | 263 kts | 314° |
| 2026-04-23 16:27 | 28.13506 | -16.87559 | 5037 ft | 266 kts | 316° |
| 2026-04-23 16:28 | 28.14861 | -16.89033 | 5844 ft | 268 kts | 317° |
| 2026-04-23 16:28 | 28.16217 | -16.90446 | 6809 ft | 270 kts | 318° |
| 2026-04-23 16:28 | 28.17615 | -16.91887 | 7673 ft | 273 kts | 317° |
| 2026-04-23 16:28 | 28.19035 | -16.93347 | 8524 ft | 277 kts | 316° |
| 2026-04-23 16:29 | 28.20465 | -16.94826 | 9377 ft | 280 kts | 316° |
| 2026-04-23 16:29 | 28.21910 | -16.96332 | 10213 ft | 283 kts | 315° |
| 2026-04-23 16:29 | 28.23405 | -16.97897 | 10572 ft | 304 kts | 315° |
| 2026-04-23 16:29 | 28.24964 | -16.99533 | 10667 ft | 306 kts | 315° |
| 2026-04-23 16:30 | 28.26504 | -17.01145 | 10425 ft | 297 kts | 315° |
| 2026-04-23 16:30 | 28.28005 | -17.02717 | 10196 ft | 290 kts | 315° |
| 2026-04-23 16:30 | 28.29466 | -17.04252 | 10082 ft | 284 kts | 315° |
| 2026-04-23 16:30 | 28.30910 | -17.05770 | 10082 ft | 283 kts | 315° |
| 2026-04-23 16:31 | 28.32355 | -17.07288 | 10084 ft | 283 kts | 315° |
| 2026-04-23 16:31 | 28.33798 | -17.08802 | 10081 ft | 283 kts | 315° |
| 2026-04-23 16:31 | 28.35246 | -17.10326 | 9914 ft | 284 kts | 315° |
| 2026-04-23 16:31 | 28.36692 | -17.11850 | 9513 ft | 282 kts | 315° |
| 2026-04-23 16:32 | 28.38126 | -17.13361 | 9132 ft | 280 kts | 316° |
| 2026-04-23 16:32 | 28.39550 | -17.14860 | 8745 ft | 278 kts | 316° |
| 2026-04-23 16:32 | 28.40966 | -17.16353 | 8359 ft | 277 kts | 316° |
| 2026-04-23 16:32 | 28.42357 | -17.17820 | 7976 ft | 275 kts | 316° |
| 2026-04-23 16:33 | 28.43757 | -17.19297 | 7568 ft | 274 kts | 316° |
| 2026-04-23 16:33 | 28.45184 | -17.20754 | 7110 ft | 276 kts | 322° |
| 2026-04-23 16:33 | 28.46826 | -17.21850 | 6886 ft | 270 kts | 334° |
| 2026-04-23 16:33 | 28.48523 | -17.22779 | 6825 ft | 272 kts | 333° |
| 2026-04-23 16:34 | 28.50224 | -17.23727 | 6742 ft | 272 kts | 333° |
| 2026-04-23 16:34 | 28.51920 | -17.24679 | 6649 ft | 272 kts | 333° |
| 2026-04-23 16:34 | 28.53619 | -17.25634 | 6556 ft | 271 kts | 333° |
| 2026-04-23 16:34 | 28.55308 | -17.26581 | 6460 ft | 271 kts | 333° |
| 2026-04-23 16:35 | 28.57001 | -17.27527 | 6359 ft | 271 kts | 333° |
| 2026-04-23 16:35 | 28.58693 | -17.28473 | 6267 ft | 270 kts | 333° |
| 2026-04-23 16:35 | 28.60358 | -17.29406 | 6170 ft | 269 kts | 333° |
| 2026-04-23 16:35 | 28.62059 | -17.30362 | 6061 ft | 269 kts | 333° |
| 2026-04-23 16:36 | 28.63709 | -17.31287 | 6005 ft | 267 kts | 333° |
| 2026-04-23 16:36 | 28.65381 | -17.32222 | 6011 ft | 268 kts | 333° |
| 2026-04-23 16:36 | 28.67052 | -17.33157 | 6013 ft | 268 kts | 333° |
| 2026-04-23 16:36 | 28.68725 | -17.34093 | 6012 ft | 268 kts | 333° |
| 2026-04-23 16:37 | 28.70396 | -17.35032 | 6013 ft | 267 kts | 333° |
| 2026-04-23 16:37 | 28.72060 | -17.35969 | 6013 ft | 266 kts | 333° |
| 2026-04-23 16:37 | 28.73720 | -17.36902 | 6013 ft | 267 kts | 333° |
| 2026-04-23 16:37 | 28.75378 | -17.37837 | 6011 ft | 266 kts | 333° |
| 2026-04-23 16:38 | 28.76504 | -17.38471 | 6013 ft | 267 kts | 333° |
| 2026-04-23 16:38 | 28.78147 | -17.39395 | 6013 ft | 267 kts | 333° |
| 2026-04-23 16:38 | 28.79810 | -17.40331 | 6014 ft | 266 kts | 333° |
| 2026-04-23 16:38 | 28.81457 | -17.41304 | 6014 ft | 266 kts | 326° |
| 2026-04-23 16:39 | 28.82818 | -17.42704 | 6016 ft | 264 kts | 307° |
| 2026-04-23 16:39 | 28.83708 | -17.44539 | 6017 ft | 265 kts | 289° |
| 2026-04-23 16:39 | 28.84033 | -17.46603 | 6016 ft | 266 kts | 271° |
| 2026-04-23 16:39 | 28.84018 | -17.48714 | 6015 ft | 267 kts | 270° |
| 2026-04-23 16:40 | 28.84007 | -17.50837 | 6016 ft | 267 kts | 271° |
| 2026-04-23 16:40 | 28.83998 | -17.52943 | 6015 ft | 267 kts | 271° |
| 2026-04-23 16:40 | 28.83989 | -17.55059 | 6015 ft | 266 kts | 271° |
| 2026-04-23 16:40 | 28.83981 | -17.57172 | 6001 ft | 267 kts | 271° |
| 2026-04-23 16:41 | 28.83945 | -17.59244 | 5884 ft | 258 kts | 264° |
| 2026-04-23 16:41 | 28.83442 | -17.61135 | 5829 ft | 244 kts | 243° |
| 2026-04-23 16:41 | 28.82427 | -17.62608 | 5748 ft | 232 kts | 223° |
| 2026-04-23 16:41 | 28.81096 | -17.63566 | 5657 ft | 223 kts | 209° |
| 2026-04-23 16:42 | 28.79744 | -17.64352 | 5559 ft | 213 kts | 210° |
| 2026-04-23 16:42 | 28.78437 | -17.65115 | 5460 ft | 209 kts | 210° |
| 2026-04-23 16:42 | 28.77153 | -17.65868 | 5394 ft | 202 kts | 209° |
| 2026-04-23 16:42 | 28.75941 | -17.66574 | 5253 ft | 192 kts | 210° |
| 2026-04-23 16:43 | 28.74750 | -17.67262 | 4945 ft | 192 kts | 209° |
| 2026-04-23 16:43 | 28.73561 | -17.67948 | 4649 ft | 190 kts | 209° |
| 2026-04-23 16:43 | 28.72398 | -17.68620 | 4376 ft | 186 kts | 209° |
| 2026-04-23 16:43 | 28.71282 | -17.69420 | 3755 ft | 198 kts | 223° |
| 2026-04-23 16:44 | 28.70335 | -17.70598 | 3087 ft | 203 kts | 233° |
| 2026-04-23 16:44 | 28.69530 | -17.71899 | 2689 ft | 192 kts | 241° |
| 2026-04-23 16:44 | 28.68864 | -17.73142 | 2492 ft | 176 kts | 244° |
| 2026-04-23 16:44 | 28.68428 | -17.74412 | 1975 ft | 174 kts | 246° |
| 2026-04-23 16:45 | 28.67544 | -17.75259 | 1659 ft | 166 kts | 202° |
| 2026-04-23 16:45 | 28.66421 | -17.75571 | 1141 ft | 171 kts | 190° |
| 2026-04-23 16:45 | 28.65205 | -17.75615 | 570 ft | 175 kts | 180° |
| 2026-04-23 16:45 | 28.64026 | -17.75588 | 235 ft | 163 kts | 176° |
| 2026-04-23 16:46 | 28.62985 | -17.75482 | 359 ft | 143 kts | 156° |
| 2026-04-23 16:46 | 28.62518 | -17.74595 | 450 ft | 144 kts | 73° |
| 2026-04-23 16:46 | 28.63283 | -17.74034 | 363 ft | 143 kts | 0° |
| 2026-04-23 16:46 | 28.64289 | -17.74089 | 463 ft | 146 kts | 360° |
| 2026-04-23 16:47 | 28.65309 | -17.74149 | 539 ft | 146 kts | 358° |
| 2026-04-23 16:47 | 28.66316 | -17.74282 | 604 ft | 147 kts | 335° |
| 2026-04-23 16:47 | 28.66758 | -17.75244 | 603 ft | 146 kts | 257° |
| 2026-04-23 16:47 | 28.66048 | -17.75913 | 437 ft | 140 kts | 171° |
| 2026-04-23 16:48 | 28.65150 | -17.75599 | 439 ft | 141 kts | 165° |
| 2026-04-23 16:48 | 28.64173 | -17.75594 | 223 ft | 143 kts | 178° |
| 2026-04-23 16:48 | 28.63196 | -17.75573 | 95 ft | 136 kts | 177° |
| 2026-04-23 16:48 | 28.62437 | -17.75557 | 112 ft | 65 kts | 178° |
| 2026-04-23 16:49 | 28.62241 | -17.75530 | 114 ft | 14 kts | 127° |
| 2026-04-23 16:49 | 28.62231 | -17.75472 | 114 ft | 7 kts | 108° |
| 2026-04-23 16:49 | 28.62228 | -17.75464 | 114 ft | 0 kts | 116° |
| 2026-04-23 16:51 | 28.62210 | -17.75438 | 114 ft | 10 kts | 126° |
| 2026-04-23 16:51 | 28.62200 | -17.75379 | 114 ft | 3 kts | 90° |
| 2026-04-23 16:51 | 28.62200 | -17.75360 | 114 ft | 0 kts | 90° |
| 2026-04-23 16:51 | 28.62200 | -17.75358 | 114 ft | 0 kts | 90° |